Time;durP1;ratioP1;P1;durP2;ratioP2;P2;SDS_P1;SDS_P2;PMS_P1;PMS_P2;Temp;Humidity;BMP_temperature;BMP_pressure;BME280_temperature;BME280_humidity;BME280_pressure;Samples;Min_cycle;Max_cycle;Signal;HPM_P1;HPM_P2
2021/03/26 00:00:18;;;;;;;13.45;8.63;;;7.50;64.00;;;;;;5107363;28;27411;-56
2021/03/26 00:03:07;;;;;;;15.75;8.55;;;7.50;64.00;;;;;;5107124;28;27407;-57
2021/03/26 00:05:55;;;;;;;15.60;8.40;;;7.50;64.20;;;;;;5107309;28;27449;-57
2021/03/26 00:08:41;;;;;;;14.32;8.70;;;7.40;64.20;;;;;;5106861;28;27531;-56
2021/03/26 00:11:28;;;;;;;14.48;8.68;;;7.40;64.20;;;;;;5106852;28;27509;-55
2021/03/26 00:14:12;;;;;;;13.25;8.75;;;7.40;64.20;;;;;;5107001;28;27415;-55
2021/03/26 00:16:57;;;;;;;15.98;9.10;;;7.30;64.30;;;;;;5107169;28;27395;-54
2021/03/26 00:19:41;;;;;;;18.00;9.43;;;7.30;64.50;;;;;;5107117;28;27348;-56
2021/03/26 00:22:26;;;;;;;15.98;9.95;;;7.30;64.50;;;;;;5107071;28;27476;-57
2021/03/26 00:25:11;;;;;;;16.83;9.05;;;7.30;64.50;;;;;;5106360;27;27462;-57
2021/03/26 00:27:55;;;;;;;13.80;8.57;;;7.30;64.50;;;;;;5106734;28;27458;-57
2021/03/26 00:30:40;;;;;;;12.65;9.10;;;7.20;64.50;;;;;;5106932;28;27896;-56
2021/03/26 00:33:24;;;;;;;13.27;7.90;;;7.20;64.60;;;;;;5104477;28;27414;-57
2021/03/26 00:36:09;;;;;;;14.65;8.90;;;7.20;64.70;;;;;;5106910;28;27481;-55
2021/03/26 00:38:54;;;;;;;13.70;8.80;;;7.10;64.70;;;;;;5088308;28;26856;-57
2021/03/26 00:41:38;;;;;;;14.30;8.55;;;7.20;64.90;;;;;;5106044;28;27486;-57
2021/03/26 00:44:23;;;;;;;13.90;9.00;;;7.10;64.90;;;;;;5106714;28;27424;-56
2021/03/26 00:47:07;;;;;;;15.30;8.38;;;7.10;64.90;;;;;;5106453;28;27493;-56
2021/03/26 00:49:52;;;;;;;13.82;7.40;;;7.10;64.90;;;;;;5087922;28;27459;-55
2021/03/26 00:52:37;;;;;;;12.75;7.65;;;7.10;65.00;;;;;;5106067;28;27509;-57
2021/03/26 00:55:21;;;;;;;11.55;8.00;;;7.10;65.00;;;;;;5088048;28;27502;-55
2021/03/26 00:58:06;;;;;;;13.77;8.27;;;7.10;64.90;;;;;;5106617;28;27342;-56
2021/03/26 01:00:51;;;;;;;14.77;8.38;;;7.10;65.10;;;;;;5105958;28;27308;-56
2021/03/26 01:03:36;;;;;;;13.82;7.55;;;7.10;65.20;;;;;;5106127;28;27354;-56
2021/03/26 01:06:21;;;;;;;14.80;8.00;;;7.10;65.20;;;;;;5106361;28;27539;-56
2021/03/26 01:09:07;;;;;;;12.48;8.15;;;7.10;65.20;;;;;;5088003;28;27435;-56
2021/03/26 01:11:52;;;;;;;15.15;8.32;;;7.10;65.30;;;;;;5105937;28;27407;-56
2021/03/26 01:14:37;;;;;;;13.98;8.63;;;7.10;65.20;;;;;;5106289;28;27422;-56
2021/03/26 01:17:21;;;;;;;12.98;7.68;;;7.20;65.10;;;;;;5105964;28;27361;-57
2021/03/26 01:20:13;;;;;;;14.30;7.55;;;7.10;65.20;;;;;;5102748;28;27421;-54
2021/03/26 01:22:58;;;;;;;11.20;7.45;;;7.10;65.20;;;;;;5087417;28;27341;-56
2021/03/26 01:25:42;;;;;;;13.65;7.90;;;7.10;65.00;;;;;;5106081;28;27370;-57
2021/03/26 01:29:06;;;;;;;10.70;7.30;;;7.10;65.20;;;;;;5100308;28;27764;-56
2021/03/26 01:32:00;;;;;;;13.70;8.20;;;7.10;65.20;;;;;;5087150;28;27404;-56
2021/03/26 01:34:45;;;;;;;11.77;7.30;;;7.10;65.20;;;;;;5105941;28;27503;-55
2021/03/26 01:37:29;;;;;;;11.98;7.82;;;7.00;65.20;;;;;;5105959;27;27452;-57
2021/03/26 01:40:25;;;;;;;12.93;7.75;;;7.00;65.20;;;;;;5105816;28;27470;-54
2021/03/26 01:43:13;;;;;;;12.68;7.53;;;7.00;65.40;;;;;;5083233;28;27476;-57
2021/03/26 01:45:58;;;;;;;13.45;7.40;;;6.90;65.40;;;;;;5081083;28;27326;-56
2021/03/26 01:48:49;;;;;;;11.65;7.45;;;6.90;65.40;;;;;;5082071;28;27334;-55
2021/03/26 01:51:39;;;;;;;12.23;7.47;;;6.80;65.50;;;;;;5085120;28;27407;-56
2021/03/26 01:54:25;;;;;;;10.93;7.82;;;6.80;65.60;;;;;;5084409;28;27403;-55
2021/03/26 01:57:11;;;;;;;14.45;7.57;;;6.80;65.70;;;;;;5067196;28;27611;-54
2021/03/26 01:59:58;;;;;;;11.02;7.63;;;6.70;65.70;;;;;;5081890;28;27471;-57
2021/03/26 02:02:45;;;;;;;10.52;7.03;;;6.70;65.80;;;;;;5081782;28;27470;-56
2021/03/26 02:05:32;;;;;;;10.65;7.07;;;6.70;65.90;;;;;;5084104;28;27480;-56
2021/03/26 02:08:36;;;;;;;14.02;8.05;;;6.60;66.00;;;;;;5057483;28;27472;-57
2021/03/26 02:11:31;;;;;;;11.07;7.05;;;6.60;66.00;;;;;;5081599;28;27465;-55
2021/03/26 02:14:17;;;;;;;12.45;6.85;;;6.60;66.20;;;;;;5066699;28;27424;-54
2021/03/26 02:17:03;;;;;;;11.23;6.47;;;6.60;66.40;;;;;;5080704;28;27330;-56
2021/03/26 02:20:18;;;;;;;11.02;7.25;;;6.60;66.50;;;;;;5080683;28;27377;-56
2021/03/26 02:23:14;;;;;;;9.73;6.50;;;6.60;66.40;;;;;;5081966;28;27589;-56
2021/03/26 02:26:14;;;;;;;11.25;6.78;;;6.60;66.50;;;;;;5081452;28;27388;-56
2021/03/26 02:28:59;;;;;;;12.63;7.05;;;6.60;66.30;;;;;;5081542;28;27415;-56
2021/03/26 02:32:29;;;;;;;12.80;7.07;;;6.60;66.40;;;;;;5080788;28;27476;-56
2021/03/26 02:35:23;;;;;;;11.18;7.15;;;6.50;66.30;;;;;;5080593;28;27313;-55
2021/03/26 02:38:36;;;;;;;10.13;6.55;;;6.50;66.30;;;;;;5081042;28;27395;-57
2021/03/26 02:41:45;;;;;;;12.05;7.03;;;6.50;66.40;;;;;;5084482;28;27431;-56
2021/03/26 02:45:32;;;;;;;12.57;7.07;;;6.40;66.50;;;;;;5078199;28;27409;-56
2021/03/26 02:48:33;;;;;;;10.23;7.13;;;6.40;66.40;;;;;;5100908;28;27446;-56
2021/03/26 02:51:24;;;;;;;9.57;6.85;;;6.40;66.60;;;;;;5075684;28;27623;-57
2021/03/26 02:54:30;;;;;;;9.18;6.47;;;6.40;66.60;;;;;;5086371;28;27466;-57
2021/03/26 02:57:26;;;;;;;13.82;7.63;;;6.30;66.60;;;;;;5104690;28;27447;-55
2021/03/26 03:00:19;;;;;;;13.13;6.93;;;6.30;66.60;;;;;;5089542;28;27938;-56
2021/03/26 03:03:04;;;;;;;10.63;7.20;;;6.30;66.60;;;;;;5085874;28;27478;-56
2021/03/26 03:06:15;;;;;;;14.43;6.95;;;6.30;66.80;;;;;;5060206;28;27443;-56
2021/03/26 03:09:29;;;;;;;13.68;7.22;;;6.20;66.80;;;;;;5096292;28;27445;-57
2021/03/26 03:12:18;;;;;;;11.70;6.65;;;6.20;66.90;;;;;;5071554;28;27927;-56
2021/03/26 03:15:40;;;;;;;9.55;6.90;;;6.20;66.90;;;;;;5100897;28;27378;-56
2021/03/26 03:18:31;;;;;;;10.55;6.93;;;6.10;66.60;;;;;;5066730;28;27408;-55
2021/03/26 03:21:26;;;;;;;10.75;7.07;;;6.10;66.80;;;;;;5085667;28;27487;-56
2021/03/26 03:24:16;;;;;;;13.55;8.48;;;6.10;67.10;;;;;;5058787;28;27493;-56
2021/03/26 03:27:44;;;;;;;12.95;7.15;;;6.10;67.10;;;;;;5086648;28;27470;-56
2021/03/26 03:30:46;;;;;;;13.10;7.45;;;6.00;67.00;;;;;;5101088;28;27437;-56
2021/03/26 03:33:50;;;;;;;14.32;8.20;;;6.00;67.00;;;;;;5085451;28;27408;-55
2021/03/26 03:37:07;;;;;;;11.38;7.43;;;6.00;67.10;;;;;;5051039;28;27362;-55
2021/03/26 03:40:03;;;;;;;11.43;8.10;;;6.00;67.40;;;;;;5085436;28;27416;-56
2021/03/26 03:43:04;;;;;;;12.57;7.82;;;6.00;67.40;;;;;;5103276;28;27415;-56
2021/03/26 03:46:03;;;;;;;11.38;7.50;;;5.90;67.50;;;;;;5087132;28;27392;-51
2021/03/26 03:50:00;;;;;;;14.35;7.63;;;5.90;67.60;;;;;;5075268;28;27513;-56
2021/03/26 03:52:58;;;;;;;12.30;8.13;;;6.00;67.70;;;;;;5001507;28;27602;-54
2021/03/26 03:55:54;;;;;;;12.68;7.93;;;6.00;67.70;;;;;;4998721;28;27450;-55
2021/03/26 03:58:40;;;;;;;12.18;8.52;;;6.00;67.80;;;;;;4998578;28;27357;-56
2021/03/26 04:01:30;;;;;;;13.18;7.32;;;6.00;68.50;;;;;;5000480;28;27918;-55
2021/03/26 04:04:22;;;;;;;13.13;8.13;;;6.10;67.90;;;;;;5003918;28;27521;-56
2021/03/26 04:07:18;;;;;;;13.57;7.78;;;6.10;67.90;;;;;;4991422;28;27506;-55
2021/03/26 04:10:10;;;;;;;12.65;8.25;;;6.10;67.90;;;;;;4991187;28;27564;-56
2021/03/26 04:13:00;;;;;;;12.77;7.97;;;6.10;67.90;;;;;;5004441;28;27489;-54
2021/03/26 04:15:51;;;;;;;12.68;8.05;;;6.10;67.90;;;;;;4990773;28;27539;-57
2021/03/26 04:19:20;;;;;;;12.73;7.78;;;6.20;67.90;;;;;;5001958;28;27516;-56
2021/03/26 04:22:19;;;;;;;11.80;7.50;;;6.10;67.80;;;;;;4988870;28;27582;-57
2021/03/26 04:25:26;;;;;;;12.57;7.68;;;6.20;67.90;;;;;;5076903;28;27340;-56
2021/03/26 04:28:35;;;;;;;12.25;7.93;;;6.20;67.80;;;;;;5071471;28;27421;-53
2021/03/26 04:31:46;;;;;;;13.60;8.13;;;6.20;67.80;;;;;;5106696;28;27439;-56
2021/03/26 04:34:33;;;;;;;11.48;7.93;;;6.20;67.90;;;;;;5088236;28;27412;-56
2021/03/26 04:37:50;;;;;;;12.43;8.35;;;6.20;67.80;;;;;;5059863;28;27472;-55
2021/03/26 04:40:41;;;;;;;10.95;7.53;;;6.20;67.90;;;;;;5065913;28;27432;-55
2021/03/26 04:43:35;;;;;;;12.90;8.10;;;6.20;67.80;;;;;;5084467;28;27443;-56
2021/03/26 04:46:56;;;;;;;13.23;7.88;;;6.30;68.00;;;;;;5082434;28;27396;-54
2021/03/26 04:49:56;;;;;;;12.23;8.13;;;6.30;68.00;;;;;;5071713;28;27466;-56
2021/03/26 04:52:47;;;;;;;11.98;7.32;;;6.30;67.90;;;;;;5085304;28;27408;-56
2021/03/26 04:55:34;;;;;;;13.88;7.75;;;6.30;67.90;;;;;;5085281;28;27341;-56
2021/03/26 04:58:21;;;;;;;9.18;7.32;;;6.30;68.00;;;;;;5081971;28;27401;-56
2021/03/26 05:01:28;;;;;;;12.50;7.43;;;6.30;67.90;;;;;;5084184;28;27630;-56
2021/03/26 05:04:33;;;;;;;10.48;6.75;;;6.40;68.00;;;;;;5055737;28;27363;-56
2021/03/26 05:07:27;;;;;;;11.95;7.53;;;6.40;67.90;;;;;;5068610;28;27413;-57
2021/03/26 05:10:16;;;;;;;10.77;7.63;;;6.40;67.90;;;;;;5081656;28;27332;-56
2021/03/26 05:13:27;;;;;;;10.40;7.45;;;6.40;67.80;;;;;;5081027;28;27394;-57
2021/03/26 05:16:31;;;;;;;13.45;7.63;;;6.30;67.80;;;;;;5081529;28;27506;-56
2021/03/26 05:19:51;;;;;;;14.00;7.88;;;6.30;67.60;;;;;;5061333;28;27433;-56
2021/03/26 05:22:55;;;;;;;10.68;7.70;;;6.30;67.70;;;;;;5068251;28;27350;-57
2021/03/26 05:26:02;;;;;;;11.77;8.20;;;6.30;67.80;;;;;;5082143;28;27378;-56
2021/03/26 05:28:54;;;;;;;15.35;8.45;;;6.20;67.60;;;;;;5068050;28;27421;-56
2021/03/26 05:31:50;;;;;;;10.20;7.15;;;6.20;67.70;;;;;;5082081;28;27463;-57
2021/03/26 05:35:07;;;;;;;10.68;7.80;;;6.20;67.80;;;;;;5063406;28;27295;-55
2021/03/26 05:38:15;;;;;;;15.13;8.55;;;6.20;67.80;;;;;;5082205;28;27371;-56
2021/03/26 05:41:21;;;;;;;14.70;8.68;;;6.10;67.70;;;;;;5084772;28;27474;-56
2021/03/26 05:44:35;;;;;;;12.18;8.10;;;6.10;67.70;;;;;;5088881;28;27614;-57
2021/03/26 05:47:53;;;;;;;14.13;8.32;;;6.10;67.60;;;;;;5087026;28;27325;-58
2021/03/26 05:50:59;;;;;;;13.82;8.68;;;6.10;67.50;;;;;;5090230;28;27975;-57
2021/03/26 05:54:32;;;;;;;15.38;8.90;;;6.10;67.50;;;;;;5101836;28;27503;-55
2021/03/26 05:58:00;;;;;;;13.38;8.90;;;6.20;67.20;;;;;;5086838;28;27398;-56
2021/03/26 06:00:57;;;;;;;10.25;8.20;;;6.20;67.20;;;;;;5087563;28;27467;-57
2021/03/26 06:04:32;;;;;;;14.07;9.15;;;6.30;67.20;;;;;;5076612;28;27433;-57
2021/03/26 06:08:04;;;;;;;17.00;8.68;;;6.30;67.10;;;;;;5105409;28;27415;-57
2021/03/26 06:11:46;;;;;;;13.20;8.18;;;6.40;66.80;;;;;;5097010;28;27478;-55
2021/03/26 06:15:20;;;;;;;12.98;8.18;;;6.50;66.60;;;;;;4994277;28;27402;-55
2021/03/26 06:19:08;;;;;;;15.52;8.20;;;6.50;66.40;;;;;;5002910;28;27350;-56
2021/03/26 06:22:58;;;;;;;13.27;7.90;;;6.60;66.20;;;;;;4991502;28;27351;-57
2021/03/26 06:26:42;;;;;;;15.68;8.30;;;6.70;66.10;;;;;;5002650;28;27447;-57
2021/03/26 06:29:51;;;;;;;12.70;8.93;;;6.80;65.90;;;;;;5003130;28;27517;-57
2021/03/26 06:33:02;;;;;;;17.33;8.68;;;6.80;65.80;;;;;;4986842;28;27439;-56
2021/03/26 06:35:57;;;;;;;11.90;7.82;;;6.90;65.70;;;;;;4999819;28;27525;-57
2021/03/26 06:38:56;;;;;;;11.65;8.18;;;7.10;65.50;;;;;;4986636;28;27502;-55
2021/03/26 06:42:01;;;;;;;12.32;7.95;;;7.30;65.20;;;;;;5002381;28;27572;-58
2021/03/26 06:44:58;;;;;;;12.05;8.20;;;7.50;64.70;;;;;;5013924;28;27396;-57
2021/03/26 06:47:47;;;;;;;13.60;8.38;;;7.70;64.20;;;;;;5084371;28;27471;-57
2021/03/26 06:51:06;;;;;;;11.48;8.38;;;7.80;63.90;;;;;;5084136;28;27427;-58
2021/03/26 06:53:51;;;;;;;12.02;7.63;;;7.90;63.70;;;;;;5080775;28;27296;-58
2021/03/26 06:56:51;;;;;;;13.30;7.93;;;8.00;63.60;;;;;;5083759;28;27383;-56
2021/03/26 06:59:38;;;;;;;13.57;8.20;;;8.10;63.50;;;;;;5084218;28;27493;-58
2021/03/26 07:02:44;;;;;;;12.75;8.77;;;8.40;62.80;;;;;;5081073;28;27354;-58
2021/03/26 07:05:53;;;;;;;12.98;8.52;;;8.80;62.20;;;;;;5084290;28;27391;-58
2021/03/26 07:08:47;;;;;;;12.75;7.95;;;9.10;61.40;;;;;;5084188;28;27474;-56
2021/03/26 07:11:58;;;;;;;12.15;8.75;;;9.50;60.80;;;;;;5083068;28;27487;-57
2021/03/26 07:14:48;;;;;;;10.95;8.60;;;10.10;59.30;;;;;;5083093;28;27397;-56
2021/03/26 07:17:48;;;;;;;12.27;7.97;;;10.60;58.20;;;;;;5083863;28;26982;-57
2021/03/26 07:20:52;;;;;;;13.52;7.97;;;10.90;57.50;;;;;;5084019;28;27951;-57
2021/03/26 07:24:07;;;;;;;11.48;7.78;;;11.30;57.10;;;;;;5082636;28;27451;-56
2021/03/26 07:26:53;;;;;;;12.57;8.23;;;11.90;56.10;;;;;;5084009;28;27484;-58
2021/03/26 07:30:16;;;;;;;11.80;8.43;;;12.70;55.10;;;;;;5084013;28;27350;-56
2021/03/26 07:33:15;;;;;;;12.48;8.30;;;13.40;53.20;;;;;;5081350;28;27906;-54
2021/03/26 07:36:31;;;;;;;12.68;9.02;;;14.00;53.40;;;;;;5086484;28;27292;-57
2021/03/26 07:39:27;;;;;;;10.75;8.65;;;14.70;51.10;;;;;;5087492;28;27375;-55
2021/03/26 07:42:34;;;;;;;16.08;9.85;;;15.30;50.70;;;;;;5094764;28;27375;-57
2021/03/26 07:45:46;;;;;;;10.45;7.70;;;15.80;49.70;;;;;;5094957;28;27408;-56
2021/03/26 07:48:38;;;;;;;14.15;8.23;;;16.40;48.90;;;;;;5107189;28;27406;-55
2021/03/26 07:51:51;;;;;;;12.50;8.25;;;16.90;48.20;;;;;;5107428;28;27403;-55
2021/03/26 07:55:00;;;;;;;14.57;9.05;;;17.40;47.80;;;;;;5080778;28;27436;-57
2021/03/26 07:58:09;;;;;;;15.98;8.32;;;17.80;47.60;;;;;;5107264;28;27340;-56
2021/03/26 08:01:09;;;;;;;14.45;8.68;;;18.20;46.90;;;;;;5088644;28;27485;-55
2021/03/26 08:04:12;;;;;;;10.48;8.43;;;18.70;46.20;;;;;;5107410;28;27378;-57
2021/03/26 08:07:21;;;;;;;14.02;9.32;;;19.20;45.80;;;;;;5107362;28;27415;-57
2021/03/26 08:10:37;;;;;;;14.52;8.85;;;19.70;45.20;;;;;;5107333;28;27869;-57
2021/03/26 08:13:56;;;;;;;12.40;9.65;;;20.10;45.00;;;;;;5091613;28;27566;-56
2021/03/26 08:16:43;;;;;;;12.45;8.27;;;20.50;44.40;;;;;;5106792;28;27473;-58
2021/03/26 08:19:56;;;;;;;14.40;8.52;;;20.90;44.00;;;;;;5107253;28;27410;-57
2021/03/26 08:23:14;;;;;;;12.27;9.70;;;21.40;43.30;;;;;;5106860;28;27856;-58
2021/03/26 08:26:04;;;;;;;11.05;8.65;;;21.80;42.80;;;;;;5103843;28;27309;-58
2021/03/26 08:28:51;;;;;;;11.38;8.18;;;22.20;42.30;;;;;;5091812;28;27427;-56
2021/03/26 08:32:07;;;;;;;11.88;8.43;;;22.60;41.60;;;;;;5107022;28;27451;-57
2021/03/26 08:35:14;;;;;;;12.85;7.63;;;23.10;41.00;;;;;;5088151;28;27408;-57
2021/03/26 08:38:07;;;;;;;11.57;8.75;;;23.50;40.50;;;;;;5091756;28;27326;-57
2021/03/26 08:40:59;;;;;;;13.50;7.80;;;23.90;39.80;;;;;;5091592;28;27428;-58
2021/03/26 08:43:49;;;;;;;11.85;8.38;;;24.30;39.40;;;;;;5091134;28;27420;-56
2021/03/26 08:46:37;;;;;;;9.88;8.10;;;24.60;38.70;;;;;;5105992;28;27325;-56
2021/03/26 08:49:22;;;;;;;11.38;8.25;;;24.90;38.30;;;;;;5106324;28;27472;-57
2021/03/26 08:52:32;;;;;;;11.77;8.13;;;25.20;37.90;;;;;;5106613;28;27517;-56
2021/03/26 08:55:50;;;;;;;12.70;7.20;;;25.50;37.50;;;;;;5087813;28;27486;-57
2021/03/26 08:58:55;;;;;;;10.23;7.68;;;25.80;37.30;;;;;;5106166;28;27948;-57
2021/03/26 09:02:15;;;;;;;14.18;7.85;;;26.20;37.10;;;;;;5106482;28;27379;-57
2021/03/26 09:05:14;;;;;;;10.82;6.95;;;26.40;36.70;;;;;;5063005;28;27624;-57
2021/03/26 09:08:38;;;;;;;11.07;7.72;;;26.70;36.20;;;;;;5106440;28;27369;-55
2021/03/26 09:11:26;;;;;;;13.32;7.97;;;27.10;35.90;;;;;;5079982;28;27835;-58
2021/03/26 09:14:25;;;;;;;10.35;7.55;;;27.40;35.50;;;;;;5105864;28;27475;-58
2021/03/26 09:17:28;;;;;;;10.27;6.93;;;27.60;35.20;;;;;;5105800;28;27454;-57
2021/03/26 09:20:30;;;;;;;9.85;7.13;;;27.90;35.30;;;;;;5106423;28;27600;-58
2021/03/26 09:23:22;;;;;;;9.88;6.97;;;28.10;35.00;;;;;;5090655;28;27830;-58
2021/03/26 09:26:55;;;;;;;10.95;7.32;;;28.40;34.90;;;;;;5087407;28;27468;-57
2021/03/26 09:30:03;;;;;;;11.70;7.32;;;28.60;34.60;;;;;;5075548;28;27469;-57
2021/03/26 09:33:07;;;;;;;8.23;5.75;;;28.80;34.50;;;;;;5105820;28;27328;-58
2021/03/26 09:36:00;;;;;;;8.57;6.30;;;29.10;34.50;;;;;;5105677;28;27470;-57
2021/03/26 09:38:48;;;;;;;11.55;6.88;;;29.30;34.00;;;;;;5105476;28;27478;-58
2021/03/26 09:41:47;;;;;;;10.50;6.50;;;29.50;33.60;;;;;;5105392;28;27349;-57
2021/03/26 09:44:46;;;;;;;7.78;5.88;;;29.70;33.50;;;;;;5105747;28;27384;-58
2021/03/26 09:47:38;;;;;;;11.68;5.60;;;29.90;33.20;;;;;;5105516;28;27985;-58
2021/03/26 09:50:35;;;;;;;9.82;6.25;;;30.10;32.80;;;;;;5105475;28;27447;-58
2021/03/26 09:53:20;;;;;;;8.15;6.45;;;30.40;32.40;;;;;;5105234;28;27459;-58
2021/03/26 09:56:29;;;;;;;12.25;5.93;;;30.60;32.00;;;;;;5090250;28;27406;-58
2021/03/26 09:59:53;;;;;;;11.25;5.82;;;30.80;32.20;;;;;;5104375;27;27312;-58
2021/03/26 10:03:10;;;;;;;12.50;6.35;;;31.10;32.00;;;;;;5087098;28;27355;-58
2021/03/26 10:06:04;;;;;;;11.27;6.00;;;31.30;31.10;;;;;;5105198;28;27378;-57
2021/03/26 10:09:22;;;;;;;9.30;6.07;;;31.50;30.80;;;;;;5105495;28;27374;-58
2021/03/26 10:12:21;;;;;;;9.85;5.55;;;31.70;30.70;;;;;;5094143;28;27360;-58
2021/03/26 10:15:09;;;;;;;7.40;5.88;;;32.00;31.20;;;;;;5072393;28;27460;-58
2021/03/26 10:18:15;;;;;;;8.85;5.57;;;32.20;30.60;;;;;;5073201;28;27408;-57
2021/03/26 10:20:59;;;;;;;8.05;4.70;;;32.30;30.40;;;;;;5105030;28;27427;-58
2021/03/26 10:23:57;;;;;;;9.82;5.82;;;32.50;30.80;;;;;;5086815;28;27375;-57
2021/03/26 10:27:00;;;;;;;7.97;5.30;;;32.70;30.20;;;;;;5090205;28;27361;-57
2021/03/26 10:29:57;;;;;;;9.63;5.13;;;32.90;30.00;;;;;;5091029;28;27471;-57
2021/03/26 10:32:41;;;;;;;7.43;5.18;;;33.00;30.00;;;;;;5104469;28;27344;-58
2021/03/26 10:35:26;;;;;;;11.48;5.32;;;33.20;30.10;;;;;;5104762;28;27331;-56
2021/03/26 10:38:21;;;;;;;7.45;5.57;;;33.30;29.90;;;;;;5089713;28;27428;-55
2021/03/26 10:41:20;;;;;;;7.03;5.57;;;33.40;29.50;;;;;;5104762;28;27368;-55
2021/03/26 10:44:26;;;;;;;9.20;5.13;;;33.50;29.20;;;;;;5064313;28;27530;-55
2021/03/26 10:47:21;;;;;;;8.73;5.40;;;33.70;29.30;;;;;;5064192;28;27983;-55
2021/03/26 10:50:11;;;;;;;6.65;4.57;;;33.70;29.40;;;;;;5063152;28;27551;-56
2021/03/26 10:53:03;;;;;;;9.98;4.68;;;33.90;29.60;;;;;;5064043;28;27333;-56
2021/03/26 10:55:54;;;;;;;10.85;5.03;;;34.00;29.70;;;;;;5063457;28;27317;-56
2021/03/26 10:58:42;;;;;;;8.90;4.82;;;34.10;29.60;;;;;;5063767;28;27915;-56
2021/03/26 11:01:26;;;;;;;6.60;4.00;;;34.20;29.60;;;;;;5062509;28;27491;-56
2021/03/26 11:04:35;;;;;;;5.93;4.22;;;34.30;29.50;;;;;;5063971;28;27436;-55
2021/03/26 11:07:21;;;;;;;5.10;3.53;;;34.20;29.70;;;;;;5063408;28;27411;-55
2021/03/26 11:10:06;;;;;;;6.53;4.20;;;34.20;29.80;;;;;;5065237;28;27975;-58
2021/03/26 11:12:54;;;;;;;5.43;4.05;;;34.30;29.70;;;;;;5066460;28;27476;-57
2021/03/26 11:15:39;;;;;;;6.35;4.10;;;34.40;29.70;;;;;;5066863;28;27512;-58
2021/03/26 11:18:57;;;;;;;7.38;3.97;;;34.30;29.40;;;;;;5066898;28;27474;-58
2021/03/26 11:21:46;;;;;;;6.13;3.85;;;34.40;29.40;;;;;;5080670;28;27451;-57
2021/03/26 11:24:58;;;;;;;8.10;4.07;;;34.50;29.30;;;;;;5066464;28;27385;-56
2021/03/26 11:27:50;;;;;;;6.35;3.42;;;34.40;29.30;;;;;;5066855;28;27368;-57
2021/03/26 11:30:37;;;;;;;5.10;3.58;;;34.50;29.60;;;;;;5067090;28;27406;-57
2021/03/26 11:33:35;;;;;;;4.57;3.42;;;34.60;29.20;;;;;;5065924;28;27499;-56
2021/03/26 11:36:23;;;;;;;5.97;3.60;;;34.70;29.00;;;;;;5066384;28;27326;-57
2021/03/26 11:39:30;;;;;;;8.40;3.67;;;34.90;28.50;;;;;;5063967;28;27467;-56
2021/03/26 11:42:30;;;;;;;6.05;3.25;;;35.00;28.60;;;;;;5082857;28;27398;-57
2021/03/26 11:45:25;;;;;;;4.95;3.45;;;35.10;28.60;;;;;;5092512;28;27337;-57
2021/03/26 11:48:35;;;;;;;7.38;3.75;;;35.10;28.20;;;;;;5107383;28;27380;-57
2021/03/26 11:51:29;;;;;;;10.88;4.60;;;35.00;28.80;;;;;;5105715;28;27493;-58
2021/03/26 11:54:27;;;;;;;15.68;5.88;;;34.70;27.00;;;;;;5107344;28;27474;-59
2021/03/26 11:57:35;;;;;;;12.25;6.10;;;34.20;22.70;;;;;;5106937;28;27849;-58
2021/03/26 12:00:22;;;;;;;8.00;5.85;;;33.00;23.80;;;;;;5107197;28;27344;-58
2021/03/26 12:03:23;;;;;;;16.77;4.47;;;32.30;24.50;;;;;;5092079;28;27369;-58
2021/03/26 12:06:32;;;;;;;13.23;3.95;;;31.90;26.40;;;;;;5092020;28;27437;-58
2021/03/26 12:09:40;;;;;;;4.65;3.40;;;32.20;27.80;;;;;;5107365;28;27357;-58
2021/03/26 12:12:30;;;;;;;35.72;5.57;;;32.70;28.30;;;;;;5106923;28;27478;-58
2021/03/26 12:15:27;;;;;;;9.20;3.60;;;33.10;28.40;;;;;;5107207;28;27379;-58
2021/03/26 12:18:25;;;;;;;5.50;2.80;;;33.40;29.20;;;;;;5093601;28;27329;-58
2021/03/26 12:21:16;;;;;;;5.88;3.17;;;33.70;29.10;;;;;;5091441;27;27818;-58
2021/03/26 12:24:31;;;;;;;6.80;3.08;;;33.90;29.70;;;;;;5089644;28;27357;-58
2021/03/26 12:27:26;;;;;;;6.80;3.00;;;34.00;28.90;;;;;;5103844;28;27316;-58
2021/03/26 12:30:20;;;;;;;10.10;3.10;;;34.10;29.10;;;;;;5107160;28;27391;-58
2021/03/26 12:33:09;;;;;;;7.43;3.15;;;34.20;29.60;;;;;;5106579;28;27383;-58
2021/03/26 12:35:56;;;;;;;7.47;2.55;;;34.30;29.90;;;;;;5106922;28;27447;-58
2021/03/26 12:38:59;;;;;;;7.75;3.13;;;34.30;29.90;;;;;;5107010;28;27446;-58
2021/03/26 12:42:09;;;;;;;7.55;3.30;;;34.40;30.30;;;;;;5106521;28;27562;-59
2021/03/26 12:45:19;;;;;;;6.75;3.05;;;34.40;30.20;;;;;;5106551;28;28073;-58
2021/03/26 12:48:09;;;;;;;5.80;3.33;;;34.30;30.00;;;;;;5105937;28;27664;-58
2021/03/26 12:50:55;;;;;;;9.60;3.30;;;34.30;29.60;;;;;;5105953;28;27431;-58
2021/03/26 12:53:53;;;;;;;9.30;3.75;;;34.30;30.20;;;;;;5091109;28;27396;-58
2021/03/26 12:56:45;;;;;;;7.15;3.80;;;34.30;30.50;;;;;;5106409;28;27515;-59
2021/03/26 12:59:37;;;;;;;8.50;3.70;;;34.30;30.00;;;;;;5106354;28;27399;-59
2021/03/26 13:02:58;;;;;;;7.45;3.35;;;34.30;30.00;;;;;;5091461;28;27459;-59
2021/03/26 13:05:45;;;;;;;10.50;3.42;;;34.40;29.90;;;;;;5087148;28;27419;-59
2021/03/26 13:08:31;;;;;;;8.85;3.70;;;34.30;29.90;;;;;;5091334;28;27463;-60
2021/03/26 13:11:16;;;;;;;5.50;3.50;;;34.10;29.70;;;;;;5106444;28;27461;-60
2021/03/26 13:14:16;;;;;;;5.18;3.08;;;33.60;29.00;;;;;;5106181;28;27414;-60
2021/03/26 13:17:01;;;;;;;7.63;3.25;;;32.90;29.70;;;;;;5062891;28;27329;-60
2021/03/26 13:19:46;;;;;;;8.13;3.05;;;32.30;30.00;;;;;;5105880;28;27320;-60
2021/03/26 13:22:52;;;;;;;6.38;3.22;;;31.80;31.30;;;;;;5091036;28;27372;-60
2021/03/26 13:25:51;;;;;;;5.85;3.03;;;31.50;32.10;;;;;;5106287;28;27435;-60
2021/03/26 13:28:43;;;;;;;5.35;2.90;;;31.10;32.20;;;;;;5078185;28;27553;-60
2021/03/26 13:31:38;;;;;;;5.78;2.60;;;30.80;32.90;;;;;;5091224;28;27942;-60
2021/03/26 13:34:41;;;;;;;6.80;2.90;;;30.70;33.50;;;;;;5105809;27;27551;-60
2021/03/26 13:37:30;;;;;;;3.50;2.60;;;30.60;33.20;;;;;;5091041;28;27400;-60
2021/03/26 13:40:17;;;;;;;6.10;2.47;;;30.40;33.20;;;;;;5105996;28;27461;-60
2021/03/26 13:43:10;;;;;;;5.75;2.33;;;30.20;33.50;;;;;;5083678;28;27423;-60
2021/03/26 13:46:02;;;;;;;5.65;2.60;;;30.00;34.40;;;;;;5083956;28;27578;-60
2021/03/26 13:48:46;;;;;;;3.13;2.20;;;29.90;34.40;;;;;;5085511;28;27380;-60
2021/03/26 13:51:34;;;;;;;6.10;3.00;;;29.80;34.90;;;;;;5084365;28;27379;-60
2021/03/26 13:54:39;;;;;;;5.82;2.38;;;29.80;34.30;;;;;;5083911;28;27426;-60
2021/03/26 13:57:28;;;;;;;3.45;2.10;;;29.80;33.80;;;;;;5084662;28;27497;-59
2021/03/26 14:00:24;;;;;;;7.93;2.65;;;29.80;33.80;;;;;;5084993;28;27346;-60
2021/03/26 14:03:26;;;;;;;3.85;2.20;;;29.80;33.10;;;;;;5084153;28;27348;-60
2021/03/26 14:06:15;;;;;;;2.40;2.20;;;29.80;32.90;;;;;;5085163;28;27410;-60
2021/03/26 14:09:25;;;;;;;3.95;1.90;;;29.90;32.50;;;;;;5085096;28;27327;-60
2021/03/26 14:12:21;;;;;;;4.80;2.47;;;29.90;32.40;;;;;;5082715;28;27453;-60
2021/03/26 14:15:21;;;;;;;3.97;2.20;;;30.00;32.50;;;;;;5081510;28;27450;-60
2021/03/26 14:18:16;;;;;;;4.53;2.15;;;30.00;32.30;;;;;;5084687;28;27340;-60
2021/03/26 14:21:20;;;;;;;3.58;2.10;;;30.00;32.80;;;;;;5084207;28;27425;-60
2021/03/26 14:24:28;;;;;;;3.80;2.40;;;29.90;33.10;;;;;;5083909;28;27408;-60
2021/03/26 14:27:14;;;;;;;4.40;2.50;;;29.90;32.60;;;;;;5080542;28;27415;-61
2021/03/26 14:30:13;;;;;;;5.97;2.58;;;29.80;32.70;;;;;;5084773;28;27445;-60
2021/03/26 14:33:00;;;;;;;4.53;2.40;;;29.60;32.40;;;;;;5083820;28;27532;-61
2021/03/26 14:35:48;;;;;;;5.97;2.45;;;29.50;33.40;;;;;;5081262;28;27349;-60
2021/03/26 14:39:01;;;;;;;4.53;2.38;;;29.50;33.70;;;;;;5084726;28;27306;-60
2021/03/26 14:42:21;;;;;;;2.72;2.42;;;29.50;33.00;;;;;;5080207;28;27652;-60
2021/03/26 14:45:16;;;;;;;4.47;2.42;;;29.40;33.00;;;;;;5100881;28;27404;-60
2021/03/26 14:48:30;;;;;;;5.38;2.38;;;29.30;32.70;;;;;;5075021;28;27483;-61
2021/03/26 14:51:45;;;;;;;5.47;2.47;;;29.00;32.80;;;;;;5086869;28;27440;-60
2021/03/26 14:54:42;;;;;;;3.38;2.67;;;28.60;33.00;;;;;;5101352;28;27411;-60
2021/03/26 14:57:50;;;;;;;6.88;2.28;;;28.20;33.40;;;;;;5104781;28;27411;-60
2021/03/26 15:00:46;;;;;;;4.25;2.30;;;28.00;33.90;;;;;;5092166;28;27325;-60
2021/03/26 15:03:50;;;;;;;3.72;2.40;;;27.80;34.40;;;;;;5089405;28;27388;-60
2021/03/26 15:07:02;;;;;;;5.85;2.70;;;27.70;34.40;;;;;;5090494;28;27389;-60
2021/03/26 15:10:16;;;;;;;5.15;2.38;;;27.60;34.60;;;;;;5101316;28;27395;-60
2021/03/26 15:13:14;;;;;;;4.40;2.55;;;27.40;35.00;;;;;;5100982;28;27477;-60
2021/03/26 15:16:34;;;;;;;5.13;2.40;;;27.20;34.50;;;;;;5104349;28;27342;-60
2021/03/26 15:19:20;;;;;;;6.32;2.53;;;26.90;34.30;;;;;;5002553;28;27559;-60
2021/03/26 15:22:24;;;;;;;6.93;2.58;;;26.70;35.10;;;;;;5075339;28;27479;-60
2021/03/26 15:25:19;;;;;;;4.47;3.20;;;26.60;35.30;;;;;;5104569;28;27431;-61
2021/03/26 15:28:12;;;;;;;6.60;2.92;;;26.50;35.60;;;;;;5104465;28;27456;-60
2021/03/26 15:31:07;;;;;;;7.32;2.95;;;26.50;34.80;;;;;;5104341;28;27397;-60